createdAt,value
2017-09-04T00:00:24.944Z,13.50
2017-09-04T00:02:53.084Z,13.50
2017-09-04T00:05:21.212Z,13.50
2017-09-04T00:07:49.488Z,13.40
2017-09-04T00:10:17.648Z,13.40
2017-09-04T00:12:45.778Z,13.30
2017-09-04T00:15:13.917Z,13.20
2017-09-04T00:17:42.086Z,13.30
2017-09-04T00:20:10.251Z,13.30
2017-09-04T00:22:38.381Z,13.30
2017-09-04T00:25:06.512Z,13.20
2017-09-04T00:27:34.782Z,13.30
2017-09-04T00:30:02.908Z,13.30
2017-09-04T00:32:31.064Z,13.20
2017-09-04T00:34:59.206Z,13.20
2017-09-04T00:37:27.366Z,13.10
2017-09-04T00:39:55.487Z,13.10
2017-09-04T00:42:23.761Z,13.10
2017-09-04T00:44:51.896Z,13.10
2017-09-04T00:47:20.040Z,13.00
2017-09-04T00:49:48.196Z,13.00
2017-09-04T00:52:16.332Z,12.90
2017-09-04T00:54:44.485Z,12.90
2017-09-04T00:57:12.627Z,12.90
2017-09-04T00:59:40.752Z,12.90
2017-09-04T01:02:09.024Z,12.90
2017-09-04T01:04:37.191Z,12.90
2017-09-04T01:07:05.336Z,12.90
2017-09-04T01:09:33.463Z,12.90
2017-09-04T01:12:01.723Z,12.80
2017-09-04T01:14:29.849Z,12.80
2017-09-04T01:16:58.001Z,12.80
2017-09-04T01:19:26.144Z,12.80
2017-09-04T01:21:54.312Z,12.70
2017-09-04T01:24:22.461Z,12.70
2017-09-04T01:26:50.589Z,12.70
2017-09-04T01:29:18.862Z,12.70
2017-09-04T01:31:47.032Z,12.70
2017-09-04T01:34:15.191Z,12.60
2017-09-04T01:36:43.328Z,12.70
2017-09-04T01:39:11.508Z,12.70
2017-09-04T01:41:39.645Z,12.60
2017-09-04T01:44:07.934Z,12.60
2017-09-04T01:46:36.082Z,12.60
2017-09-04T01:49:04.208Z,12.60
2017-09-04T01:51:33.577Z,12.70
2017-09-04T01:54:01.716Z,12.70
2017-09-04T01:56:29.984Z,12.70
2017-09-04T01:58:58.124Z,12.70
2017-09-04T02:01:26.402Z,12.70
2017-09-04T02:03:54.540Z,12.70
2017-09-04T02:06:22.680Z,12.60
2017-09-04T02:08:50.848Z,12.60
2017-09-04T02:11:18.988Z,12.60
2017-09-04T02:13:47.265Z,12.60
2017-09-04T02:16:15.406Z,12.50
2017-09-04T02:18:43.577Z,12.50
2017-09-04T02:21:11.726Z,12.50
2017-09-04T02:23:39.875Z,12.50
2017-09-04T02:26:08.040Z,12.50
2017-09-04T02:28:36.181Z,12.50
2017-09-04T02:31:04.485Z,12.50
2017-09-04T02:33:32.637Z,12.60
2017-09-04T02:36:00.782Z,12.60
2017-09-04T02:38:29.045Z,12.60
2017-09-04T02:40:57.184Z,12.60
2017-09-04T02:43:25.356Z,12.60
2017-09-04T02:45:53.496Z,12.60
2017-09-04T02:48:21.640Z,12.50
2017-09-04T02:50:49.829Z,12.50
2017-09-04T02:53:17.972Z,12.60
2017-09-04T02:55:46.257Z,12.60
2017-09-04T02:58:14.389Z,12.60
2017-09-04T03:00:42.533Z,12.50
2017-09-04T03:03:10.708Z,12.50
2017-09-04T03:05:38.844Z,12.50
2017-09-04T03:08:07.003Z,12.50
2017-09-04T03:10:35.280Z,12.40
2017-09-04T03:13:03.433Z,12.40
2017-09-04T03:15:31.628Z,12.40
2017-09-04T03:17:59.773Z,12.40
2017-09-04T03:20:27.937Z,12.30
2017-09-04T03:22:56.085Z,12.30
2017-09-04T03:25:24.225Z,12.40
2017-09-04T03:27:52.404Z,12.40
2017-09-04T03:30:20.555Z,12.30
2017-09-04T03:32:48.844Z,12.30
2017-09-04T03:35:16.988Z,12.30
2017-09-04T03:37:45.146Z,12.20
2017-09-04T03:40:13.284Z,12.20
2017-09-04T03:42:41.483Z,12.20
2017-09-04T03:45:09.617Z,12.20
2017-09-04T03:47:37.752Z,12.20
2017-09-04T03:50:06.040Z,12.20
2017-09-04T03:52:34.172Z,12.20
2017-09-04T03:55:02.336Z,12.20
2017-09-04T03:57:30.477Z,12.10
2017-09-04T03:59:58.647Z,12.10
2017-09-04T04:02:26.789Z,12.10
2017-09-04T04:04:54.928Z,12.10
2017-09-04T04:07:23.213Z,12.00
2017-09-04T04:09:51.353Z,12.10
2017-09-04T04:12:19.500Z,12.00
2017-09-04T04:14:47.673Z,12.00
2017-09-04T04:17:15.845Z,12.00
2017-09-04T04:19:44.022Z,12.00
2017-09-04T04:22:12.448Z,12.00
2017-09-04T04:24:40.736Z,12.00
2017-09-04T04:27:08.881Z,11.90
2017-09-04T04:29:37.056Z,11.90
2017-09-04T04:32:05.213Z,11.90
2017-09-04T04:34:33.353Z,11.90
2017-09-04T04:37:01.515Z,11.90
2017-09-04T04:39:29.652Z,11.90
2017-09-04T04:41:59.154Z,11.90
2017-09-04T04:44:27.286Z,11.90
2017-09-04T04:46:55.424Z,11.90
2017-09-04T04:49:23.581Z,11.90
2017-09-04T04:51:51.733Z,11.90
2017-09-04T04:54:19.896Z,11.90
2017-09-04T04:56:48.029Z,11.80
2017-09-04T04:59:16.315Z,11.80
2017-09-04T05:01:45.644Z,11.70
2017-09-04T05:04:16.121Z,11.70
2017-09-04T05:06:46.403Z,11.80
2017-09-04T05:09:14.540Z,11.80
2017-09-04T05:11:42.680Z,11.80
2017-09-04T05:14:10.851Z,11.80
2017-09-04T05:16:39.005Z,11.80
2017-09-04T05:19:07.281Z,11.90
2017-09-04T05:21:35.446Z,11.90
2017-09-04T05:24:03.612Z,12.00
2017-09-04T05:26:31.794Z,12.00
2017-09-04T05:28:59.932Z,12.00
2017-09-04T05:31:28.208Z,12.00
2017-09-04T05:33:56.358Z,12.10
2017-09-04T05:36:24.495Z,12.10
2017-09-04T05:38:52.667Z,12.10
2017-09-04T05:41:20.800Z,12.10
2017-09-04T05:43:48.964Z,12.20
2017-09-04T05:46:17.092Z,12.10
2017-09-04T05:48:45.376Z,12.10
2017-09-04T05:51:13.517Z,12.00
2017-09-04T05:53:41.661Z,12.00
2017-09-04T05:56:09.933Z,12.00
2017-09-04T05:58:38.060Z,12.00
2017-09-04T06:01:06.200Z,12.10
2017-09-04T06:03:34.365Z,12.10
2017-09-04T06:06:02.649Z,12.10
2017-09-04T06:08:30.789Z,12.00
2017-09-04T06:10:58.926Z,12.00
2017-09-04T06:13:27.088Z,12.10
2017-09-04T06:15:55.233Z,12.10
2017-09-04T06:18:23.434Z,12.30
2017-09-04T06:20:51.536Z,12.30
2017-09-04T06:23:19.857Z,12.30
2017-09-04T06:25:48.004Z,12.30
2017-09-04T06:28:16.172Z,12.30
2017-09-04T06:30:44.314Z,12.30
2017-09-04T06:33:12.468Z,12.40
2017-09-04T06:35:40.618Z,12.30
2017-09-04T06:38:08.776Z,12.40
2017-09-04T06:40:36.919Z,12.40
2017-09-04T06:43:05.197Z,12.60
2017-09-04T06:45:33.365Z,12.60
2017-09-04T06:48:01.544Z,12.70
2017-09-04T06:50:29.681Z,12.80
2017-09-04T06:52:57.823Z,12.80
2017-09-04T06:55:25.992Z,12.80
2017-09-04T06:57:54.278Z,12.90
2017-09-04T07:00:22.419Z,13.00
2017-09-04T07:02:50.560Z,13.00
2017-09-04T07:05:18.735Z,13.00
2017-09-04T07:07:46.881Z,13.00
2017-09-04T07:10:15.057Z,13.00
2017-09-04T07:12:43.196Z,13.10
2017-09-04T07:15:11.468Z,13.10
2017-09-04T07:17:39.620Z,13.20
2017-09-04T07:20:07.832Z,13.30
2017-09-04T07:22:36.004Z,13.40
2017-09-04T07:25:04.153Z,13.50
2017-09-04T07:27:32.329Z,13.60
2017-09-04T07:30:00.473Z,13.70
2017-09-04T07:32:28.765Z,13.70
2017-09-04T07:34:56.977Z,13.80
2017-09-04T07:37:25.125Z,13.90
2017-09-04T07:39:53.298Z,14.00
2017-09-04T07:42:21.460Z,14.10
2017-09-04T07:44:49.616Z,14.20
2017-09-04T07:47:17.792Z,14.30
2017-09-04T07:49:45.939Z,14.40
2017-09-04T07:52:14.218Z,14.50
2017-09-04T07:54:42.353Z,14.50
2017-09-04T07:57:10.522Z,14.60
2017-09-04T07:59:38.661Z,14.70
2017-09-04T08:02:06.840Z,14.90
2017-09-04T08:04:34.988Z,14.90
2017-09-04T08:07:03.144Z,15.00
2017-09-04T08:09:31.406Z,15.10
2017-09-04T08:11:59.544Z,15.20
2017-09-04T08:14:27.746Z,15.30
2017-09-04T08:16:55.892Z,15.30
2017-09-04T08:19:24.035Z,15.40
2017-09-04T08:21:52.214Z,15.40
2017-09-04T08:24:20.349Z,15.40
2017-09-04T08:26:48.572Z,15.50
2017-09-04T08:29:16.743Z,15.60
2017-09-04T08:31:44.868Z,15.70
2017-09-04T08:34:13.072Z,15.80
2017-09-04T08:36:41.210Z,15.90
2017-09-04T08:39:09.344Z,16.00
2017-09-04T08:41:37.526Z,16.20
2017-09-04T08:44:05.677Z,16.40
2017-09-04T08:46:33.823Z,16.40
2017-09-04T08:49:02.097Z,16.50
2017-09-04T08:51:30.224Z,16.60
2017-09-04T08:53:58.383Z,16.80
2017-09-04T08:56:26.559Z,17.00
2017-09-04T08:58:54.697Z,17.20
2017-09-04T09:01:22.853Z,17.30
2017-09-04T09:03:51.001Z,17.40
2017-09-04T09:06:19.140Z,17.60
2017-09-04T09:08:47.413Z,17.80
2017-09-04T09:11:15.569Z,18.10
2017-09-04T09:13:43.690Z,18.40
2017-09-04T09:16:11.872Z,18.70
2017-09-04T09:18:40.016Z,19.10
2017-09-04T09:21:08.224Z,19.40
2017-09-04T09:23:36.363Z,19.60
2017-09-04T09:26:04.496Z,19.70
2017-09-04T09:28:32.656Z,19.70
2017-09-04T09:31:00.796Z,19.70
2017-09-04T09:33:28.957Z,19.70
2017-09-04T09:35:57.110Z,19.80
2017-09-04T09:38:25.414Z,19.80
2017-09-04T09:40:53.548Z,20.00
2017-09-04T09:43:21.688Z,20.10
2017-09-04T09:45:49.850Z,20.00
2017-09-04T09:48:18.006Z,20.10
2017-09-04T09:50:46.198Z,20.10
2017-09-04T09:53:14.334Z,20.10
2017-09-04T09:55:42.608Z,20.10
2017-09-04T09:58:10.756Z,20.10
2017-09-04T10:00:38.930Z,20.10
2017-09-04T10:03:07.065Z,20.20
2017-09-04T10:05:35.202Z,20.20
2017-09-04T10:08:03.487Z,20.10
2017-09-04T10:10:31.618Z,20.10
2017-09-04T10:12:59.757Z,20.20
2017-09-04T10:15:28.038Z,20.20
2017-09-04T10:17:56.206Z,20.20
2017-09-04T10:20:24.349Z,20.20
2017-09-04T10:22:52.485Z,20.20
2017-09-04T10:25:20.681Z,20.20
2017-09-04T10:27:48.834Z,20.30
2017-09-04T10:30:17.017Z,20.40
2017-09-04T10:32:45.145Z,20.40
2017-09-04T10:35:13.288Z,20.60
2017-09-04T10:37:41.471Z,20.70
2017-09-04T10:40:10.949Z,20.90
2017-09-04T10:42:39.094Z,21.10
2017-09-04T10:45:07.248Z,21.10
2017-09-04T10:47:35.412Z,21.30
2017-09-04T10:50:03.560Z,21.40
2017-09-04T10:52:31.754Z,21.50
2017-09-04T10:54:59.900Z,21.60
2017-09-04T10:57:28.170Z,21.70
2017-09-04T10:59:56.348Z,21.80
2017-09-04T11:02:24.508Z,21.90
2017-09-04T11:04:52.669Z,22.00
2017-09-04T11:07:20.821Z,22.00
2017-09-04T11:09:49.116Z,22.00
2017-09-04T11:12:17.315Z,21.90
2017-09-04T11:14:45.494Z,21.90
2017-09-04T11:17:13.760Z,22.00
2017-09-04T11:19:42.413Z,21.80
2017-09-04T11:22:10.616Z,21.80
2017-09-04T11:24:38.768Z,21.70
2017-09-04T11:27:06.925Z,21.70
2017-09-04T11:29:35.226Z,21.90
2017-09-04T11:32:03.405Z,22.00
2017-09-04T11:34:31.594Z,22.10
2017-09-04T11:36:59.774Z,22.10
2017-09-04T11:39:27.965Z,22.10
2017-09-04T11:41:56.115Z,22.20
2017-09-04T11:44:24.277Z,22.30
2017-09-04T11:46:52.551Z,22.40
2017-09-04T11:49:20.886Z,22.40
2017-09-04T11:51:49.104Z,22.40
2017-09-04T11:54:17.288Z,22.40
2017-09-04T11:56:45.442Z,22.50
2017-09-04T11:59:13.638Z,22.70
2017-09-04T12:01:42.021Z,22.70
2017-09-04T12:04:10.330Z,22.60
2017-09-04T12:06:38.721Z,22.60
2017-09-04T12:09:06.885Z,22.60
2017-09-04T12:11:35.082Z,22.60
2017-09-04T12:14:03.580Z,22.70
2017-09-04T12:16:31.770Z,22.60
2017-09-04T12:18:59.921Z,22.50
2017-09-04T12:21:28.216Z,22.30
2017-09-04T12:23:56.412Z,22.20
2017-09-04T12:26:24.584Z,22.20
2017-09-04T12:28:52.760Z,22.10
2017-09-04T12:31:20.951Z,22.00
2017-09-04T12:33:49.145Z,21.90
2017-09-04T12:36:17.304Z,21.90
2017-09-04T12:38:47.768Z,21.90
2017-09-04T12:41:15.905Z,21.90
2017-09-04T12:43:44.068Z,22.00
2017-09-04T12:46:13.115Z,21.90
2017-09-04T12:48:41.325Z,21.90
2017-09-04T12:51:09.501Z,21.80
2017-09-04T12:53:38.504Z,21.80
2017-09-04T12:56:07.295Z,21.90
2017-09-04T12:58:35.519Z,21.90
2017-09-04T13:01:03.909Z,21.90
2017-09-04T13:03:32.497Z,21.80
2017-09-04T13:09:37.404Z,21.90
2017-09-04T13:12:11.942Z,21.80
2017-09-04T13:14:40.224Z,21.90
2017-09-04T13:17:08.438Z,21.80
2017-09-04T13:19:36.610Z,21.80
2017-09-04T13:22:04.777Z,21.70
2017-09-04T13:24:32.917Z,21.80
2017-09-04T13:27:01.231Z,21.80
2017-09-04T13:29:29.380Z,21.80
2017-09-04T13:31:57.678Z,21.70
2017-09-04T13:34:25.837Z,21.70
2017-09-04T13:36:53.992Z,21.70
2017-09-04T13:39:22.173Z,21.70
2017-09-04T13:41:50.336Z,21.70
2017-09-04T13:44:19.394Z,21.60
2017-09-04T13:46:47.536Z,21.70
2017-09-04T13:49:15.709Z,21.70
2017-09-04T13:51:43.864Z,21.60
2017-09-04T13:54:12.048Z,21.60
2017-09-04T13:56:40.198Z,21.70
2017-09-04T13:59:08.491Z,21.60
2017-09-04T14:01:36.633Z,21.70
2017-09-04T14:04:04.848Z,21.80
2017-09-04T14:06:32.994Z,21.70
2017-09-04T14:09:01.148Z,21.70
2017-09-04T14:11:29.353Z,21.70
2017-09-04T14:13:57.502Z,21.70
2017-09-04T14:16:25.659Z,21.80
2017-09-04T14:18:53.845Z,21.90
2017-09-04T14:21:22.018Z,21.90
2017-09-04T14:23:50.172Z,21.90
2017-09-04T14:26:18.399Z,21.90
2017-09-04T14:28:46.542Z,22.00
2017-09-04T14:31:14.744Z,22.00
2017-09-04T14:33:42.895Z,22.00
2017-09-04T14:36:11.052Z,21.90
2017-09-04T14:38:39.249Z,21.80
2017-09-04T14:41:07.431Z,21.90
2017-09-04T14:43:35.568Z,21.80
2017-09-04T14:46:03.753Z,21.80
2017-09-04T14:48:31.973Z,21.90
2017-09-04T14:51:00.152Z,21.90
2017-09-04T14:53:29.057Z,21.80
2017-09-04T14:55:57.237Z,21.80
2017-09-04T14:58:25.484Z,21.80
2017-09-04T15:00:53.779Z,21.70
2017-09-04T15:03:21.954Z,21.70
2017-09-04T15:05:50.182Z,21.80
2017-09-04T15:08:18.351Z,21.80
2017-09-04T15:10:46.517Z,21.80
2017-09-04T15:13:15.980Z,21.80
2017-09-04T15:15:44.127Z,21.80
2017-09-04T15:18:12.406Z,21.70
2017-09-04T15:20:40.549Z,21.70
2017-09-04T15:23:08.760Z,21.60
2017-09-04T15:25:36.924Z,21.60
2017-09-04T15:28:05.070Z,21.60
2017-09-04T15:30:34.013Z,21.60
2017-09-04T15:33:02.173Z,21.60
2017-09-04T15:35:31.212Z,21.70
2017-09-04T15:37:59.361Z,21.70
2017-09-04T15:40:27.590Z,21.70
2017-09-04T15:42:55.777Z,21.70
2017-09-04T15:45:23.950Z,21.70
2017-09-04T15:47:52.182Z,21.70
2017-09-04T15:50:20.327Z,21.80
2017-09-04T15:52:48.616Z,21.90
2017-09-04T15:55:16.811Z,21.90
2017-09-04T15:57:45.019Z,21.80
2017-09-04T16:00:13.193Z,21.80
2017-09-04T16:02:41.344Z,21.70
2017-09-04T16:05:09.580Z,21.70
2017-09-04T16:07:37.734Z,21.70
2017-09-04T16:10:06.045Z,21.70
2017-09-04T16:12:34.218Z,21.60
2017-09-04T16:15:02.370Z,21.60
2017-09-04T16:17:30.549Z,21.50
2017-09-04T16:19:58.718Z,21.50
2017-09-04T16:22:26.929Z,21.50
2017-09-04T16:24:55.229Z,21.50
2017-09-04T16:27:23.760Z,21.50
2017-09-04T16:29:51.913Z,21.60
2017-09-04T16:32:20.095Z,21.50
2017-09-04T16:34:48.274Z,21.50
2017-09-04T16:37:16.457Z,21.50
2017-09-04T16:39:44.614Z,21.50
2017-09-04T16:42:12.889Z,21.60
2017-09-04T16:44:41.098Z,21.70
2017-09-04T16:47:09.252Z,21.60
2017-09-04T16:49:37.442Z,21.60
2017-09-04T16:52:05.600Z,21.60
2017-09-04T16:54:33.732Z,21.60
2017-09-04T16:57:02.020Z,21.60
2017-09-04T16:59:30.158Z,21.60
2017-09-04T17:01:58.326Z,21.50
2017-09-04T17:04:26.501Z,21.40
2017-09-04T17:06:54.683Z,21.30
2017-09-04T17:09:22.853Z,21.30
2017-09-04T17:11:51.151Z,21.30
2017-09-04T17:14:19.309Z,21.20
2017-09-04T17:16:47.463Z,21.20
2017-09-04T17:19:15.649Z,21.10
2017-09-04T17:21:43.821Z,21.10
2017-09-04T17:24:12.016Z,20.90
2017-09-04T17:26:40.165Z,20.80
2017-09-04T17:29:08.320Z,20.70
2017-09-04T17:31:36.494Z,20.70
2017-09-04T17:34:04.698Z,20.60
2017-09-04T17:36:32.974Z,20.40
2017-09-04T17:39:01.149Z,20.30
2017-09-04T17:41:29.326Z,20.30
2017-09-04T17:43:57.850Z,20.20
2017-09-04T17:46:26.005Z,20.10
2017-09-04T17:48:54.316Z,20.10
2017-09-04T17:51:22.518Z,20.10
2017-09-04T17:53:50.841Z,20.10
2017-09-04T17:56:19.004Z,20.10
2017-09-04T17:58:47.163Z,20.10
2017-09-04T18:01:16.141Z,20.20
2017-09-04T18:03:44.300Z,20.20
2017-09-04T18:06:12.888Z,20.20
2017-09-04T18:08:41.026Z,20.20
2017-09-04T18:11:10.301Z,20.10
2017-09-04T18:13:38.586Z,20.00
2017-09-04T18:16:06.738Z,19.90
2017-09-04T18:18:34.925Z,19.90
2017-09-04T18:21:03.085Z,19.90
2017-09-04T18:23:32.261Z,19.90
2017-09-04T18:26:00.887Z,19.80
2017-09-04T18:28:29.066Z,19.90
2017-09-04T18:31:09.320Z,19.90
2017-09-04T18:33:37.524Z,19.80
2017-09-04T18:36:05.748Z,19.90
2017-09-04T18:38:34.030Z,19.90
2017-09-04T18:41:02.241Z,19.90
2017-09-04T18:46:28.549Z,19.90
2017-09-04T18:52:00.284Z,19.70
2017-09-04T18:54:42.364Z,19.70
2017-09-04T19:00:36.358Z,19.60
2017-09-04T19:03:04.618Z,19.60
2017-09-04T19:05:32.877Z,19.50
2017-09-04T19:11:05.621Z,19.50
2017-09-04T19:14:07.514Z,19.50
2017-09-04T19:44:29.406Z,19.00
2017-09-04T19:46:57.548Z,19.00
2017-09-04T19:49:25.722Z,19.00
2017-09-04T19:51:53.857Z,19.00
2017-09-04T19:54:22.027Z,19.00
2017-09-04T19:56:50.249Z,19.00
2017-09-04T19:59:18.386Z,18.90
2017-09-04T20:01:46.554Z,18.90
2017-09-04T20:04:14.843Z,18.90
2017-09-04T20:06:43.025Z,18.80
2017-09-04T20:09:11.237Z,18.80
2017-09-04T20:11:39.386Z,18.80
2017-09-04T20:14:07.578Z,18.80
2017-09-04T20:16:37.054Z,18.80
2017-09-04T20:19:05.248Z,18.70
2017-09-04T20:21:33.432Z,18.70
2017-09-04T20:24:01.617Z,18.60
2017-09-04T20:26:29.764Z,18.60
2017-09-04T20:28:57.928Z,18.70
2017-09-04T20:31:26.217Z,18.70
2017-09-04T20:33:54.403Z,18.70
2017-09-04T20:36:22.589Z,18.70
2017-09-04T20:38:50.715Z,18.70
2017-09-04T20:41:19.010Z,18.70
2017-09-04T20:43:47.140Z,18.60
2017-09-04T20:46:15.325Z,18.60
2017-09-04T20:48:43.480Z,18.60
2017-09-04T20:51:11.614Z,18.70
2017-09-04T20:53:41.162Z,18.70
2017-09-04T20:56:09.324Z,18.70
2017-09-04T20:58:37.478Z,18.70
2017-09-04T21:01:05.674Z,18.60
2017-09-04T21:03:33.858Z,18.60
2017-09-04T21:06:02.002Z,18.60
2017-09-04T21:08:30.154Z,18.60
2017-09-04T21:10:58.452Z,18.70
2017-09-04T21:13:26.585Z,18.60
2017-09-04T21:15:54.877Z,18.70
2017-09-04T21:18:23.052Z,18.70
2017-09-04T21:20:51.194Z,18.70
2017-09-04T21:23:19.334Z,18.70
2017-09-04T21:25:47.507Z,18.60
2017-09-04T21:28:15.654Z,18.70
2017-09-04T21:30:43.932Z,18.60
2017-09-04T21:33:12.076Z,18.60
2017-09-04T21:35:40.249Z,18.60
2017-09-04T21:38:08.450Z,18.60
2017-09-04T21:40:36.581Z,18.70
2017-09-04T21:43:05.502Z,18.60
2017-09-04T21:45:33.682Z,18.60
2017-09-04T21:48:01.863Z,18.60
2017-09-04T21:50:30.162Z,18.60
2017-09-04T21:52:58.307Z,18.60
2017-09-04T21:55:26.844Z,18.50
2017-09-04T21:57:55.057Z,18.40
2017-09-04T22:00:23.214Z,18.40
2017-09-04T22:02:51.342Z,18.40
2017-09-04T22:05:19.523Z,18.30
2017-09-04T22:07:47.812Z,18.40
2017-09-04T22:10:15.980Z,18.40
2017-09-04T22:12:44.141Z,18.40
2017-09-04T22:15:12.296Z,18.40
2017-09-04T22:17:40.430Z,18.40
2017-09-04T22:20:08.609Z,18.40
2017-09-04T22:22:36.777Z,18.40
2017-09-04T22:25:04.917Z,18.40
2017-09-04T22:27:33.205Z,18.40
2017-09-04T22:30:01.341Z,18.40
2017-09-04T22:32:29.485Z,18.40
2017-09-04T22:34:57.640Z,18.50
2017-09-04T22:37:25.779Z,18.50
2017-09-04T22:39:53.920Z,18.30
2017-09-04T22:42:22.116Z,18.20
2017-09-04T22:44:50.252Z,18.20
2017-09-04T22:47:18.399Z,18.20
2017-09-04T22:49:46.661Z,18.30
2017-09-04T22:52:14.788Z,18.30
2017-09-04T22:54:42.960Z,18.30
2017-09-04T22:57:11.105Z,18.20
2017-09-04T22:59:39.262Z,18.00
2017-09-04T23:02:07.421Z,18.00
2017-09-04T23:04:35.716Z,17.90
2017-09-04T23:07:03.863Z,17.80
2017-09-04T23:09:32.033Z,17.80
2017-09-04T23:12:00.180Z,17.80
2017-09-04T23:14:28.324Z,17.80
2017-09-04T23:16:56.508Z,17.80
2017-09-04T23:19:24.703Z,17.70
2017-09-04T23:21:52.835Z,17.70
2017-09-04T23:24:21.142Z,17.70
2017-09-04T23:26:49.300Z,17.80
2017-09-04T23:29:17.458Z,17.70
2017-09-04T23:31:45.620Z,17.70
2017-09-04T23:34:13.791Z,17.80
2017-09-04T23:36:43.219Z,17.80
2017-09-04T23:39:11.397Z,17.90
2017-09-04T23:41:39.533Z,17.90
2017-09-04T23:44:07.814Z,17.90
2017-09-04T23:46:35.944Z,18.00
2017-09-04T23:49:04.088Z,18.00
2017-09-04T23:51:32.270Z,17.90
2017-09-04T23:54:00.439Z,17.90
2017-09-04T23:56:28.593Z,17.90
2017-09-04T23:58:56.760Z,17.80
